createdAt,value
2023-03-18T00:04:12.715Z,100658.63
2023-03-18T00:09:18.295Z,100659.44
2023-03-18T00:14:22.537Z,100669.88
2023-03-18T00:19:26.715Z,100665.94
2023-03-18T00:24:32.351Z,100656.50
2023-03-18T00:29:36.496Z,100657.94
2023-03-18T00:34:40.649Z,100663.94
2023-03-18T00:39:46.824Z,100672.75
2023-03-18T00:44:51.204Z,100680.19
2023-03-18T00:49:56.840Z,100684.97
2023-03-18T00:55:02.436Z,100681.84
2023-03-18T01:00:08.501Z,100681.94
2023-03-18T01:05:14.168Z,100678.88
2023-03-18T01:10:19.843Z,100674.88
2023-03-18T01:15:24.167Z,100680.75
2023-03-18T01:20:29.329Z,100683.66
2023-03-18T01:25:37.403Z,100684.88
2023-03-18T01:30:42.354Z,100686.50
2023-03-18T01:35:49.566Z,100687.16
2023-03-18T01:40:55.257Z,100675.41
2023-03-18T01:46:02.420Z,100682.09
2023-03-18T01:51:09.007Z,100682.72
2023-03-18T01:56:16.944Z,100692.06
2023-03-18T02:01:27.895Z,100687.94
2023-03-18T02:06:33.777Z,100683.69
2023-03-18T02:11:42.474Z,100692.63
2023-03-18T02:16:52.729Z,100694.63
2023-03-18T02:22:15.421Z,100701.19
2023-03-18T02:27:24.165Z,100688.31
2023-03-18T02:32:28.570Z,100703.94
2023-03-18T02:37:32.532Z,100701.25
2023-03-18T02:42:38.814Z,100695.47
2023-03-18T02:47:46.484Z,100712.38
2023-03-18T02:52:50.452Z,100710.66
2023-03-18T02:57:57.511Z,100704.78
2023-03-18T03:03:04.016Z,100731.06
2023-03-18T03:08:09.478Z,100728.38
2023-03-18T03:13:18.818Z,100734.09
2023-03-18T03:18:24.452Z,100746.41
2023-03-18T03:23:29.515Z,100744.75
2023-03-18T03:28:35.392Z,100741.47
2023-03-18T03:33:41.859Z,100753.31
2023-03-18T03:38:47.054Z,100751.06
2023-03-18T03:43:52.553Z,100749.31
2023-03-18T03:48:56.659Z,100747.94
2023-03-18T03:54:01.019Z,100753.63
2023-03-18T03:59:07.190Z,100745.47
2023-03-18T04:04:33.767Z,100765.03
2023-03-18T04:09:38.123Z,100764.66
2023-03-18T04:14:44.005Z,100763.09
2023-03-18T04:19:49.648Z,100764.34
2023-03-18T04:24:54.080Z,100761.34
2023-03-18T04:29:59.576Z,100777.28
2023-03-18T04:35:16.297Z,100789.09
2023-03-18T04:40:21.925Z,100802.28
2023-03-18T04:45:28.398Z,100796.25
2023-03-18T04:50:35.839Z,100795.41
2023-03-18T04:55:41.816Z,100788.44
2023-03-18T05:00:49.398Z,100811.78
2023-03-18T05:06:04.839Z,100817.34
2023-03-18T05:11:25.352Z,100811.25
2023-03-18T05:16:31.558Z,100812.88
2023-03-18T05:21:36.690Z,100805.59
2023-03-18T05:26:41.348Z,100809.56
2023-03-18T05:31:47.958Z,100808.06
2023-03-18T05:36:55.135Z,100811.81
2023-03-18T05:41:59.656Z,100822.63
2023-03-18T05:47:08.521Z,100830.88
2023-03-18T05:52:32.839Z,100827.88
2023-03-18T05:57:40.522Z,100842.81
2023-03-18T06:02:49.715Z,100845.28
2023-03-18T06:07:55.419Z,100846.81
2023-03-18T06:13:00.292Z,100836.41
2023-03-18T06:18:06.291Z,100850.63
2023-03-18T06:23:10.546Z,100850.50
2023-03-18T06:28:15.407Z,100855.69
2023-03-18T06:33:21.425Z,100865.41
2023-03-18T06:38:25.601Z,100869.38
2023-03-18T06:43:31.178Z,100870.59
2023-03-18T06:48:40.321Z,100879.91
2023-03-18T06:53:45.524Z,100882.38
2023-03-18T06:58:50.114Z,100883.22
2023-03-18T07:03:56.043Z,100881.84
2023-03-18T07:09:01.234Z,100892.38
2023-03-18T07:14:06.191Z,100896.91
2023-03-18T07:19:15.321Z,100897.47
2023-03-18T07:24:22.849Z,100919.88
2023-03-18T07:29:27.020Z,100927.31
2023-03-18T07:34:32.590Z,100926.22
2023-03-18T07:39:37.418Z,100927.16
2023-03-18T07:44:41.769Z,100944.16
2023-03-18T07:49:47.454Z,100922.50
2023-03-18T07:54:51.472Z,100935.66
2023-03-18T07:59:56.223Z,100921.03
2023-03-18T08:05:01.609Z,100921.38
2023-03-18T08:10:06.840Z,100918.66
2023-03-18T08:15:12.260Z,100915.03
2023-03-18T08:20:18.050Z,100913.66
2023-03-18T08:25:23.658Z,100920.59
2023-03-18T08:30:28.921Z,100919.59
2023-03-18T08:35:36.132Z,100927.28
2023-03-18T08:40:42.503Z,100917.50
2023-03-18T08:45:47.276Z,100928.19
2023-03-18T08:50:53.703Z,100924.72
2023-03-18T08:55:57.822Z,100928.75
2023-03-18T09:01:03.488Z,100935.69
2023-03-18T09:06:09.907Z,100933.94
2023-03-18T09:11:14.184Z,100921.97
2023-03-18T09:16:18.508Z,100929.94
2023-03-18T09:21:24.075Z,100919.13
2023-03-18T09:26:28.064Z,100905.66
2023-03-18T09:31:32.699Z,100893.94
2023-03-18T09:36:38.142Z,100881.88
2023-03-18T09:41:59.840Z,100870.88
2023-03-18T09:47:24.595Z,100866.13
2023-03-18T09:52:37.183Z,100872.97
2023-03-18T09:57:45.488Z,100883.91
2023-03-18T10:02:54.742Z,100888.25
2023-03-18T10:08:07.903Z,100892.22
2023-03-18T10:13:18.949Z,100895.63
2023-03-18T10:18:30.980Z,100894.75
2023-03-18T10:23:50.828Z,100909.28
2023-03-18T10:29:13.532Z,100895.38
2023-03-18T10:34:21.987Z,100907.72
2023-03-18T10:39:29.472Z,100897.81
2023-03-18T10:44:37.538Z,100911.66
2023-03-18T10:49:50.755Z,100909.63
2023-03-18T10:54:56.286Z,100907.59
2023-03-18T11:00:00.460Z,100914.28
2023-03-18T11:05:16.994Z,100918.91
2023-03-18T11:10:28.915Z,100908.13
2023-03-18T11:15:38.486Z,100921.09
2023-03-18T11:20:48.056Z,100920.59
2023-03-18T11:25:57.053Z,100921.91
2023-03-18T11:31:08.042Z,100913.88
2023-03-18T11:36:19.363Z,100926.69
2023-03-18T11:41:27.890Z,100921.28
2023-03-18T11:46:36.384Z,100925.88
2023-03-18T11:51:47.804Z,100936.97
2023-03-18T11:56:58.727Z,100938.91
2023-03-18T12:02:45.256Z,100950.34
2023-03-18T12:07:57.961Z,100938.53
2023-03-18T12:13:31.824Z,100936.56
2023-03-18T12:19:05.113Z,100939.53
2023-03-18T12:24:47.682Z,100943.88
2023-03-18T12:30:09.791Z,100939.13
2023-03-18T12:35:42.767Z,100934.19
2023-03-18T12:40:59.490Z,100933.50
2023-03-18T12:46:13.286Z,100935.94
2023-03-18T12:51:26.059Z,100938.31
2023-03-18T12:56:32.749Z,100928.97
2023-03-18T13:01:47.914Z,100934.44
2023-03-18T13:07:02.224Z,100918.28
2023-03-18T13:12:11.630Z,100914.66
2023-03-18T13:17:23.971Z,100923.22
2023-03-18T13:23:13.126Z,100915.06
2023-03-18T13:28:51.472Z,100907.81
2023-03-18T13:34:26.727Z,100908.50
2023-03-18T13:39:52.732Z,100891.59
2023-03-18T13:45:08.993Z,100894.06
2023-03-18T13:50:33.084Z,100903.19
2023-03-18T13:55:48.064Z,100892.38
2023-03-18T14:01:40.370Z,100895.31
2023-03-18T14:06:55.565Z,100880.88
2023-03-18T14:12:19.024Z,100873.38
2023-03-18T14:17:48.184Z,100865.22
2023-03-18T14:22:55.078Z,100860.44
2023-03-18T14:28:14.756Z,100855.19
2023-03-18T14:33:54.122Z,100845.09
2023-03-18T14:39:04.202Z,100844.47
2023-03-18T14:44:21.500Z,100845.19
2023-03-18T14:49:36.646Z,100842.81
2023-03-18T14:54:46.111Z,100846.78
2023-03-18T14:59:50.542Z,100844.25
2023-03-18T15:04:57.161Z,100835.78
2023-03-18T15:10:12.077Z,100825.19
2023-03-18T15:15:18.875Z,100824.13
2023-03-18T15:20:24.186Z,100824.97
2023-03-18T15:25:30.901Z,100817.19
2023-03-18T15:30:35.382Z,100810.94
2023-03-18T15:35:40.285Z,100815.88
2023-03-18T15:40:50.877Z,100807.75
2023-03-18T15:45:58.953Z,100808.31
2023-03-18T15:51:05.285Z,100792.97
2023-03-18T15:56:19.697Z,100792.63
2023-03-18T16:01:23.761Z,100788.34
2023-03-18T16:06:28.839Z,100795.00
2023-03-18T16:11:36.943Z,100796.06
2023-03-18T16:16:41.043Z,100798.94
2023-03-18T16:21:45.673Z,100792.81
2023-03-18T16:26:52.904Z,100789.19
2023-03-18T16:31:57.128Z,100770.50
2023-03-18T16:37:01.807Z,100784.03
2023-03-18T16:42:10.511Z,100794.41
2023-03-18T16:47:23.097Z,100792.59
2023-03-18T16:52:27.504Z,100793.28
2023-03-18T16:57:33.473Z,100792.28
2023-03-18T17:02:38.107Z,100796.56
2023-03-18T17:07:42.149Z,100799.31
2023-03-18T17:12:54.058Z,100813.25
2023-03-18T17:17:59.745Z,100821.78
2023-03-18T17:23:04.653Z,100819.13
2023-03-18T17:28:18.624Z,100816.22
2023-03-18T17:33:27.280Z,100819.63
2023-03-18T17:38:32.341Z,100824.38
2023-03-18T17:43:38.313Z,100825.72
2023-03-18T17:48:42.495Z,100831.91
2023-03-18T17:53:49.464Z,100833.38
2023-03-18T17:58:55.235Z,100835.50
2023-03-18T18:04:01.807Z,100841.72
2023-03-18T18:09:06.601Z,100837.13
2023-03-18T18:14:20.488Z,100848.56
2023-03-18T18:19:25.111Z,100852.47
2023-03-18T18:24:31.576Z,100858.03
2023-03-18T18:29:37.963Z,100851.31
2023-03-18T18:34:42.168Z,100850.00
2023-03-18T18:39:46.204Z,100859.59
2023-03-18T18:44:52.762Z,100846.91
2023-03-18T18:49:56.768Z,100883.16
2023-03-18T18:55:01.097Z,100940.25
2023-03-18T19:00:11.413Z,100943.75
2023-03-18T19:05:16.574Z,100954.91
2023-03-18T19:10:21.396Z,100966.16
2023-03-18T19:15:26.880Z,100969.56
2023-03-18T19:20:32.266Z,100969.13
2023-03-18T19:25:36.481Z,100963.50
2023-03-18T19:30:42.707Z,100966.28
2023-03-18T19:35:47.472Z,100953.53
2023-03-18T19:40:52.891Z,100937.94
2023-03-18T19:45:58.724Z,100947.06
2023-03-18T19:51:03.462Z,100949.88
2023-03-18T19:56:18.922Z,100950.09
2023-03-18T20:01:25.396Z,100954.44
2023-03-18T20:06:29.493Z,100959.19
2023-03-18T20:11:35.633Z,100956.13
2023-03-18T20:16:41.250Z,100954.72
2023-03-18T20:21:45.731Z,100958.09
2023-03-18T20:26:49.955Z,100947.97
2023-03-18T20:31:56.741Z,100955.53
2023-03-18T20:37:00.917Z,100965.09
2023-03-18T20:42:05.230Z,100969.59
2023-03-18T20:47:10.911Z,100961.78
2023-03-18T20:52:30.497Z,100959.56
2023-03-18T20:57:34.560Z,100966.13
2023-03-18T21:02:40.093Z,100985.88
2023-03-18T21:07:45.066Z,100979.28
2023-03-18T21:12:50.235Z,100976.16
2023-03-18T21:17:55.921Z,100970.53
2023-03-18T21:23:00.037Z,100976.44
2023-03-18T21:28:04.404Z,100971.50
2023-03-18T21:33:23.139Z,100980.69
2023-03-18T21:38:29.320Z,100969.16
2023-03-18T21:43:35.899Z,100966.84
2023-03-18T21:48:41.675Z,100974.66
2023-03-18T21:53:47.562Z,100983.56
2023-03-18T21:58:51.755Z,100982.34
2023-03-18T22:03:57.643Z,100982.50
2023-03-18T22:09:02.359Z,100973.16
2023-03-18T22:14:06.503Z,100984.00
2023-03-18T22:19:12.064Z,100980.16
2023-03-18T22:24:16.380Z,100983.19
2023-03-18T22:29:20.469Z,100977.31
2023-03-18T22:34:32.803Z,100980.72
2023-03-18T22:39:37.385Z,100976.31
2023-03-18T22:44:41.549Z,100977.97
2023-03-18T22:49:47.616Z,100970.03
2023-03-18T22:54:56.208Z,100975.25
2023-03-18T23:00:00.724Z,100975.25
2023-03-18T23:05:07.891Z,100970.03
2023-03-18T23:10:14.081Z,100973.06
2023-03-18T23:15:20.772Z,100971.97
2023-03-18T23:20:26.309Z,100971.53
2023-03-18T23:25:30.356Z,100970.84
2023-03-18T23:30:39.790Z,100969.09
2023-03-18T23:35:45.506Z,100973.06
2023-03-18T23:40:49.593Z,100974.44
2023-03-18T23:45:53.741Z,100975.25
2023-03-18T23:50:59.203Z,100976.91
2023-03-18T23:56:03.385Z,100977.72
